sensor_id;sensor_type;location;lat;lon;timestamp;P1;durP1;ratioP1;P2;durP2;ratioP2
77152;SDS011;66124;51.146;17.072;2022-12-29T00:01:18;5.60;;;3.40;;
77152;SDS011;66124;51.146;17.072;2022-12-29T00:03:48;6.50;;;3.10;;
77152;SDS011;66124;51.146;17.072;2022-12-29T00:06:17;4.40;;;2.90;;
77152;SDS011;66124;51.146;17.072;2022-12-29T00:08:47;4.00;;;2.20;;
77152;SDS011;66124;51.146;17.072;2022-12-29T00:11:17;5.30;;;2.70;;
77152;SDS011;66124;51.146;17.072;2022-12-29T00:13:48;6.70;;;2.90;;
77152;SDS011;66124;51.146;17.072;2022-12-29T00:16:18;5.00;;;2.40;;
77152;SDS011;66124;51.146;17.072;2022-12-29T00:18:47;6.50;;;2.20;;
77152;SDS011;66124;51.146;17.072;2022-12-29T00:21:17;5.20;;;2.10;;
77152;SDS011;66124;51.146;17.072;2022-12-29T00:23:48;2.00;;;1.60;;
77152;SDS011;66124;51.146;17.072;2022-12-29T00:26:17;2.90;;;1.50;;
77152;SDS011;66124;51.146;17.072;2022-12-29T00:28:47;3.80;;;1.60;;
77152;SDS011;66124;51.146;17.072;2022-12-29T00:31:17;2.50;;;1.50;;
77152;SDS011;66124;51.146;17.072;2022-12-29T00:33:46;2.70;;;1.30;;
77152;SDS011;66124;51.146;17.072;2022-12-29T00:36:18;3.30;;;1.30;;
77152;SDS011;66124;51.146;17.072;2022-12-29T00:38:51;3.60;;;1.30;;
77152;SDS011;66124;51.146;17.072;2022-12-29T00:41:24;2.70;;;1.60;;
77152;SDS011;66124;51.146;17.072;2022-12-29T00:50:57;2.10;;;1.40;;
77152;SDS011;66124;51.146;17.072;2022-12-29T00:53:27;2.50;;;1.50;;
77152;SDS011;66124;51.146;17.072;2022-12-29T00:55:56;3.00;;;1.70;;
77152;SDS011;66124;51.146;17.072;2022-12-29T00:58:27;1.40;;;1.30;;
77152;SDS011;66124;51.146;17.072;2022-12-29T01:01:02;2.30;;;1.00;;
77152;SDS011;66124;51.146;17.072;2022-12-29T01:03:32;4.00;;;1.90;;
77152;SDS011;66124;51.146;17.072;2022-12-29T01:06:04;5.00;;;1.30;;
77152;SDS011;66124;51.146;17.072;2022-12-29T01:08:35;3.30;;;1.40;;
77152;SDS011;66124;51.146;17.072;2022-12-29T01:11:05;3.60;;;1.50;;
77152;SDS011;66124;51.146;17.072;2022-12-29T01:13:36;1.90;;;1.10;;
77152;SDS011;66124;51.146;17.072;2022-12-29T01:16:07;5.00;;;1.40;;
77152;SDS011;66124;51.146;17.072;2022-12-29T01:18:36;2.30;;;1.30;;
77152;SDS011;66124;51.146;17.072;2022-12-29T01:21:06;3.10;;;1.50;;
77152;SDS011;66124;51.146;17.072;2022-12-29T01:23:35;2.20;;;1.80;;
77152;SDS011;66124;51.146;17.072;2022-12-29T01:26:09;2.30;;;1.70;;
77152;SDS011;66124;51.146;17.072;2022-12-29T01:28:40;1.80;;;1.20;;
77152;SDS011;66124;51.146;17.072;2022-12-29T01:31:10;2.30;;;1.20;;
77152;SDS011;66124;51.146;17.072;2022-12-29T01:33:40;3.10;;;1.40;;
77152;SDS011;66124;51.146;17.072;2022-12-29T01:36:11;1.40;;;1.20;;
77152;SDS011;66124;51.146;17.072;2022-12-29T01:38:42;2.90;;;1.30;;
77152;SDS011;66124;51.146;17.072;2022-12-29T01:41:13;4.10;;;1.50;;
77152;SDS011;66124;51.146;17.072;2022-12-29T01:43:44;1.90;;;1.20;;
77152;SDS011;66124;51.146;17.072;2022-12-29T01:46:16;3.90;;;1.70;;
77152;SDS011;66124;51.146;17.072;2022-12-29T01:48:50;2.50;;;1.30;;
77152;SDS011;66124;51.146;17.072;2022-12-29T01:51:25;2.70;;;1.40;;
77152;SDS011;66124;51.146;17.072;2022-12-29T01:53:56;2.60;;;1.50;;
77152;SDS011;66124;51.146;17.072;2022-12-29T01:56:29;2.20;;;1.20;;
77152;SDS011;66124;51.146;17.072;2022-12-29T01:59:00;3.80;;;1.20;;
77152;SDS011;66124;51.146;17.072;2022-12-29T02:11:33;2.30;;;1.00;;
77152;SDS011;66124;51.146;17.072;2022-12-29T02:14:08;3.30;;;1.00;;
77152;SDS011;66124;51.146;17.072;2022-12-29T02:16:43;1.70;;;1.00;;
77152;SDS011;66124;51.146;17.072;2022-12-29T02:22:27;2.90;;;1.50;;
77152;SDS011;66124;51.146;17.072;2022-12-29T02:25:19;1.90;;;1.00;;
77152;SDS011;66124;51.146;17.072;2022-12-29T02:28:17;2.60;;;0.90;;
77152;SDS011;66124;51.146;17.072;2022-12-29T02:31:08;1.20;;;1.00;;
77152;SDS011;66124;51.146;17.072;2022-12-29T02:33:48;1.40;;;0.90;;
77152;SDS011;66124;51.146;17.072;2022-12-29T02:36:29;1.80;;;1.10;;
77152;SDS011;66124;51.146;17.072;2022-12-29T02:39:07;2.50;;;1.00;;
77152;SDS011;66124;51.146;17.072;2022-12-29T02:41:49;1.50;;;1.30;;
77152;SDS011;66124;51.146;17.072;2022-12-29T02:44:31;2.10;;;1.10;;
77152;SDS011;66124;51.146;17.072;2022-12-29T02:47:11;2.30;;;1.10;;
77152;SDS011;66124;51.146;17.072;2022-12-29T02:49:47;1.70;;;1.10;;
77152;SDS011;66124;51.146;17.072;2022-12-29T02:52:25;2.00;;;1.10;;
77152;SDS011;66124;51.146;17.072;2022-12-29T02:54:59;1.80;;;1.00;;
77152;SDS011;66124;51.146;17.072;2022-12-29T02:57:30;2.20;;;1.40;;
77152;SDS011;66124;51.146;17.072;2022-12-29T03:00:03;2.50;;;1.10;;
77152;SDS011;66124;51.146;17.072;2022-12-29T03:02:39;2.70;;;1.20;;
77152;SDS011;66124;51.146;17.072;2022-12-29T03:05:39;3.10;;;1.20;;
77152;SDS011;66124;51.146;17.072;2022-12-29T03:08:21;1.90;;;1.20;;
77152;SDS011;66124;51.146;17.072;2022-12-29T03:10:59;2.90;;;1.10;;
77152;SDS011;66124;51.146;17.072;2022-12-29T03:13:33;2.20;;;1.30;;
77152;SDS011;66124;51.146;17.072;2022-12-29T03:16:07;2.50;;;1.30;;
77152;SDS011;66124;51.146;17.072;2022-12-29T03:18:48;1.70;;;0.90;;
77152;SDS011;66124;51.146;17.072;2022-12-29T03:31:28;1.80;;;1.00;;
77152;SDS011;66124;51.146;17.072;2022-12-29T03:33:58;1.70;;;1.00;;
77152;SDS011;66124;51.146;17.072;2022-12-29T03:36:30;1.90;;;1.00;;
77152;SDS011;66124;51.146;17.072;2022-12-29T03:39:08;3.30;;;1.30;;
77152;SDS011;66124;51.146;17.072;2022-12-29T03:41:40;1.70;;;1.10;;
77152;SDS011;66124;51.146;17.072;2022-12-29T03:44:11;3.20;;;1.40;;
77152;SDS011;66124;51.146;17.072;2022-12-29T03:46:41;4.30;;;1.20;;
77152;SDS011;66124;51.146;17.072;2022-12-29T03:49:11;2.10;;;1.20;;
77152;SDS011;66124;51.146;17.072;2022-12-29T03:51:40;2.10;;;1.30;;
77152;SDS011;66124;51.146;17.072;2022-12-29T03:54:10;3.20;;;1.40;;
77152;SDS011;66124;51.146;17.072;2022-12-29T03:56:39;1.70;;;1.10;;
77152;SDS011;66124;51.146;17.072;2022-12-29T03:59:08;0.90;;;0.80;;
77152;SDS011;66124;51.146;17.072;2022-12-29T04:01:38;1.20;;;1.00;;
77152;SDS011;66124;51.146;17.072;2022-12-29T04:04:07;2.20;;;1.10;;
77152;SDS011;66124;51.146;17.072;2022-12-29T04:06:37;1.50;;;1.10;;
77152;SDS011;66124;51.146;17.072;2022-12-29T04:09:06;2.00;;;1.10;;
77152;SDS011;66124;51.146;17.072;2022-12-29T04:11:37;2.90;;;1.20;;
77152;SDS011;66124;51.146;17.072;2022-12-29T04:14:06;2.00;;;1.10;;
77152;SDS011;66124;51.146;17.072;2022-12-29T04:16:36;2.40;;;1.10;;
77152;SDS011;66124;51.146;17.072;2022-12-29T04:19:05;2.40;;;1.00;;
77152;SDS011;66124;51.146;17.072;2022-12-29T04:21:35;3.30;;;1.20;;
77152;SDS011;66124;51.146;17.072;2022-12-29T04:24:05;2.10;;;1.10;;
77152;SDS011;66124;51.146;17.072;2022-12-29T04:26:34;2.60;;;1.30;;
77152;SDS011;66124;51.146;17.072;2022-12-29T04:29:04;2.50;;;1.30;;
77152;SDS011;66124;51.146;17.072;2022-12-29T04:31:33;1.70;;;1.10;;
77152;SDS011;66124;51.146;17.072;2022-12-29T04:34:02;2.40;;;1.10;;
77152;SDS011;66124;51.146;17.072;2022-12-29T04:36:32;2.50;;;1.40;;
77152;SDS011;66124;51.146;17.072;2022-12-29T04:39:01;1.50;;;0.80;;
77152;SDS011;66124;51.146;17.072;2022-12-29T04:51:31;1.50;;;1.10;;
77152;SDS011;66124;51.146;17.072;2022-12-29T04:54:01;2.50;;;1.40;;
77152;SDS011;66124;51.146;17.072;2022-12-29T04:56:30;2.30;;;1.20;;
77152;SDS011;66124;51.146;17.072;2022-12-29T04:58:59;3.60;;;1.30;;
77152;SDS011;66124;51.146;17.072;2022-12-29T05:01:29;2.20;;;1.10;;
77152;SDS011;66124;51.146;17.072;2022-12-29T05:03:58;1.50;;;1.00;;
77152;SDS011;66124;51.146;17.072;2022-12-29T05:06:28;3.80;;;1.40;;
77152;SDS011;66124;51.146;17.072;2022-12-29T05:08:57;1.80;;;0.90;;
77152;SDS011;66124;51.146;17.072;2022-12-29T05:11:26;1.00;;;0.90;;
77152;SDS011;66124;51.146;17.072;2022-12-29T05:13:55;1.80;;;1.00;;
77152;SDS011;66124;51.146;17.072;2022-12-29T05:16:25;1.60;;;1.10;;
77152;SDS011;66124;51.146;17.072;2022-12-29T05:18:54;2.50;;;1.20;;
77152;SDS011;66124;51.146;17.072;2022-12-29T05:21:24;1.00;;;0.80;;
77152;SDS011;66124;51.146;17.072;2022-12-29T05:23:53;2.20;;;1.00;;
77152;SDS011;66124;51.146;17.072;2022-12-29T05:26:23;3.10;;;1.10;;
77152;SDS011;66124;51.146;17.072;2022-12-29T05:28:53;4.80;;;1.30;;
77152;SDS011;66124;51.146;17.072;2022-12-29T05:31:22;2.80;;;1.10;;
77152;SDS011;66124;51.146;17.072;2022-12-29T05:33:52;1.70;;;1.00;;
77152;SDS011;66124;51.146;17.072;2022-12-29T05:36:21;1.10;;;1.00;;
77152;SDS011;66124;51.146;17.072;2022-12-29T05:38:51;2.20;;;0.90;;
77152;SDS011;66124;51.146;17.072;2022-12-29T05:41:20;1.70;;;0.90;;
77152;SDS011;66124;51.146;17.072;2022-12-29T05:43:49;2.50;;;1.30;;
77152;SDS011;66124;51.146;17.072;2022-12-29T05:46:19;1.20;;;1.10;;
77152;SDS011;66124;51.146;17.072;2022-12-29T05:48:48;2.00;;;1.20;;
77152;SDS011;66124;51.146;17.072;2022-12-29T05:51:17;2.90;;;1.30;;
77152;SDS011;66124;51.146;17.072;2022-12-29T05:53:47;2.30;;;1.00;;
77152;SDS011;66124;51.146;17.072;2022-12-29T05:56:16;1.90;;;0.90;;
77152;SDS011;66124;51.146;17.072;2022-12-29T05:58:46;1.60;;;1.00;;
77152;SDS011;66124;51.146;17.072;2022-12-29T06:01:15;2.40;;;1.40;;
77152;SDS011;66124;51.146;17.072;2022-12-29T06:11:18;2.70;;;1.40;;
77152;SDS011;66124;51.146;17.072;2022-12-29T06:13:47;2.20;;;1.30;;
77152;SDS011;66124;51.146;17.072;2022-12-29T06:16:17;4.40;;;1.60;;
77152;SDS011;66124;51.146;17.072;2022-12-29T06:18:46;2.60;;;1.30;;
77152;SDS011;66124;51.146;17.072;2022-12-29T06:21:15;2.90;;;1.60;;
77152;SDS011;66124;51.146;17.072;2022-12-29T06:23:45;2.50;;;1.40;;
77152;SDS011;66124;51.146;17.072;2022-12-29T06:26:14;2.10;;;1.40;;
77152;SDS011;66124;51.146;17.072;2022-12-29T06:28:43;1.60;;;1.20;;
77152;SDS011;66124;51.146;17.072;2022-12-29T06:31:13;3.40;;;1.60;;
77152;SDS011;66124;51.146;17.072;2022-12-29T06:33:42;2.90;;;1.40;;
77152;SDS011;66124;51.146;17.072;2022-12-29T06:36:11;2.10;;;1.50;;
77152;SDS011;66124;51.146;17.072;2022-12-29T06:38:41;2.30;;;1.40;;
77152;SDS011;66124;51.146;17.072;2022-12-29T06:41:10;2.50;;;1.50;;
77152;SDS011;66124;51.146;17.072;2022-12-29T06:43:39;2.50;;;1.70;;
77152;SDS011;66124;51.146;17.072;2022-12-29T06:46:09;3.30;;;1.40;;
77152;SDS011;66124;51.146;17.072;2022-12-29T06:48:38;2.90;;;1.60;;
77152;SDS011;66124;51.146;17.072;2022-12-29T06:51:08;2.70;;;1.60;;
77152;SDS011;66124;51.146;17.072;2022-12-29T06:53:37;2.30;;;1.40;;
77152;SDS011;66124;51.146;17.072;2022-12-29T06:56:07;2.30;;;1.50;;
77152;SDS011;66124;51.146;17.072;2022-12-29T06:58:36;3.00;;;1.80;;
77152;SDS011;66124;51.146;17.072;2022-12-29T07:01:06;3.80;;;1.80;;
77152;SDS011;66124;51.146;17.072;2022-12-29T07:03:35;2.60;;;1.30;;
77152;SDS011;66124;51.146;17.072;2022-12-29T07:06:05;2.50;;;1.30;;
77152;SDS011;66124;51.146;17.072;2022-12-29T07:08:35;3.40;;;1.70;;
77152;SDS011;66124;51.146;17.072;2022-12-29T07:11:05;3.40;;;2.00;;
77152;SDS011;66124;51.146;17.072;2022-12-29T07:13:34;3.30;;;1.80;;
77152;SDS011;66124;51.146;17.072;2022-12-29T07:16:06;2.60;;;1.40;;
77152;SDS011;66124;51.146;17.072;2022-12-29T07:18:37;3.00;;;1.90;;
77152;SDS011;66124;51.146;17.072;2022-12-29T07:31:04;3.20;;;1.90;;
77152;SDS011;66124;51.146;17.072;2022-12-29T07:33:41;2.50;;;1.80;;
77152;SDS011;66124;51.146;17.072;2022-12-29T07:36:10;4.60;;;2.00;;
77152;SDS011;66124;51.146;17.072;2022-12-29T07:38:40;6.60;;;2.20;;
77152;SDS011;66124;51.146;17.072;2022-12-29T07:41:10;5.30;;;2.50;;
77152;SDS011;66124;51.146;17.072;2022-12-29T07:43:40;3.00;;;1.80;;
77152;SDS011;66124;51.146;17.072;2022-12-29T07:46:09;3.80;;;1.70;;
77152;SDS011;66124;51.146;17.072;2022-12-29T07:48:38;3.50;;;2.50;;
77152;SDS011;66124;51.146;17.072;2022-12-29T07:51:07;4.10;;;1.90;;
77152;SDS011;66124;51.146;17.072;2022-12-29T07:53:37;4.20;;;2.00;;
77152;SDS011;66124;51.146;17.072;2022-12-29T07:56:06;5.20;;;2.50;;
77152;SDS011;66124;51.146;17.072;2022-12-29T07:58:36;4.40;;;2.50;;
77152;SDS011;66124;51.146;17.072;2022-12-29T08:01:05;4.50;;;2.30;;
77152;SDS011;66124;51.146;17.072;2022-12-29T08:03:35;2.80;;;1.80;;
77152;SDS011;66124;51.146;17.072;2022-12-29T08:06:04;4.80;;;2.30;;
77152;SDS011;66124;51.146;17.072;2022-12-29T08:08:36;4.20;;;2.30;;
77152;SDS011;66124;51.146;17.072;2022-12-29T08:11:05;3.40;;;2.10;;
77152;SDS011;66124;51.146;17.072;2022-12-29T08:13:35;4.90;;;2.10;;
77152;SDS011;66124;51.146;17.072;2022-12-29T08:16:05;3.50;;;2.20;;
77152;SDS011;66124;51.146;17.072;2022-12-29T08:18:34;3.60;;;2.00;;
77152;SDS011;66124;51.146;17.072;2022-12-29T08:21:04;3.10;;;2.00;;
77152;SDS011;66124;51.146;17.072;2022-12-29T08:23:34;3.90;;;2.00;;
77152;SDS011;66124;51.146;17.072;2022-12-29T08:26:04;4.00;;;2.10;;
77152;SDS011;66124;51.146;17.072;2022-12-29T08:28:34;4.50;;;2.20;;
77152;SDS011;66124;51.146;17.072;2022-12-29T08:31:03;7.10;;;2.80;;
77152;SDS011;66124;51.146;17.072;2022-12-29T08:33:33;4.10;;;2.70;;
77152;SDS011;66124;51.146;17.072;2022-12-29T08:36:03;6.60;;;3.40;;
77152;SDS011;66124;51.146;17.072;2022-12-29T08:38:34;4.80;;;2.60;;
77152;SDS011;66124;51.146;17.072;2022-12-29T08:50:56;4.50;;;2.70;;
77152;SDS011;66124;51.146;17.072;2022-12-29T08:53:25;5.10;;;2.70;;
77152;SDS011;66124;51.146;17.072;2022-12-29T08:55:58;6.20;;;2.20;;
77152;SDS011;66124;51.146;17.072;2022-12-29T08:58:28;3.90;;;2.30;;
77152;SDS011;66124;51.146;17.072;2022-12-29T09:00:58;4.60;;;2.40;;
77152;SDS011;66124;51.146;17.072;2022-12-29T09:03:28;5.80;;;2.40;;
77152;SDS011;66124;51.146;17.072;2022-12-29T09:05:57;4.30;;;2.60;;
77152;SDS011;66124;51.146;17.072;2022-12-29T09:08:26;4.00;;;2.30;;
77152;SDS011;66124;51.146;17.072;2022-12-29T09:10:56;6.10;;;2.50;;
77152;SDS011;66124;51.146;17.072;2022-12-29T09:13:35;4.20;;;2.30;;
77152;SDS011;66124;51.146;17.072;2022-12-29T09:16:05;4.10;;;2.20;;
77152;SDS011;66124;51.146;17.072;2022-12-29T09:18:35;3.60;;;2.10;;
77152;SDS011;66124;51.146;17.072;2022-12-29T09:21:05;4.90;;;2.60;;
77152;SDS011;66124;51.146;17.072;2022-12-29T09:23:37;5.80;;;2.90;;
77152;SDS011;66124;51.146;17.072;2022-12-29T09:26:07;4.60;;;2.40;;
77152;SDS011;66124;51.146;17.072;2022-12-29T09:28:37;3.30;;;1.90;;
77152;SDS011;66124;51.146;17.072;2022-12-29T09:31:06;5.70;;;2.40;;
77152;SDS011;66124;51.146;17.072;2022-12-29T09:33:36;4.50;;;2.50;;
77152;SDS011;66124;51.146;17.072;2022-12-29T09:36:06;3.50;;;2.20;;
77152;SDS011;66124;51.146;17.072;2022-12-29T09:38:36;5.30;;;2.60;;
77152;SDS011;66124;51.146;17.072;2022-12-29T09:41:06;4.60;;;2.30;;
77152;SDS011;66124;51.146;17.072;2022-12-29T09:43:56;4.60;;;2.40;;
77152;SDS011;66124;51.146;17.072;2022-12-29T09:46:33;6.00;;;2.60;;
77152;SDS011;66124;51.146;17.072;2022-12-29T09:49:08;4.10;;;2.40;;
77152;SDS011;66124;51.146;17.072;2022-12-29T09:51:50;4.80;;;2.50;;
77152;SDS011;66124;51.146;17.072;2022-12-29T09:54:27;3.70;;;2.20;;
77152;SDS011;66124;51.146;17.072;2022-12-29T09:57:16;3.20;;;1.80;;
77152;SDS011;66124;51.146;17.072;2022-12-29T09:59:50;4.80;;;2.00;;
77152;SDS011;66124;51.146;17.072;2022-12-29T10:11:26;4.10;;;1.90;;
77152;SDS011;66124;51.146;17.072;2022-12-29T10:14:07;3.40;;;2.10;;
77152;SDS011;66124;51.146;17.072;2022-12-29T10:16:45;3.40;;;1.60;;
77152;SDS011;66124;51.146;17.072;2022-12-29T10:19:34;2.80;;;1.50;;
77152;SDS011;66124;51.146;17.072;2022-12-29T10:22:17;2.80;;;1.70;;
77152;SDS011;66124;51.146;17.072;2022-12-29T10:24:58;5.90;;;2.40;;
77152;SDS011;66124;51.146;17.072;2022-12-29T10:27:28;2.10;;;1.70;;
77152;SDS011;66124;51.146;17.072;2022-12-29T10:30:00;1.40;;;1.20;;
77152;SDS011;66124;51.146;17.072;2022-12-29T10:32:30;2.30;;;1.70;;
77152;SDS011;66124;51.146;17.072;2022-12-29T10:40:24;2.70;;;1.50;;
77152;SDS011;66124;51.146;17.072;2022-12-29T10:42:56;2.50;;;1.50;;
77152;SDS011;66124;51.146;17.072;2022-12-29T10:45:29;2.80;;;1.50;;
77152;SDS011;66124;51.146;17.072;2022-12-29T10:48:00;3.70;;;1.50;;
77152;SDS011;66124;51.146;17.072;2022-12-29T10:50:32;2.70;;;1.50;;
77152;SDS011;66124;51.146;17.072;2022-12-29T10:53:04;4.70;;;1.60;;
77152;SDS011;66124;51.146;17.072;2022-12-29T10:55:35;3.20;;;1.40;;
77152;SDS011;66124;51.146;17.072;2022-12-29T10:58:06;2.60;;;1.40;;
77152;SDS011;66124;51.146;17.072;2022-12-29T11:00:39;3.30;;;1.70;;
77152;SDS011;66124;51.146;17.072;2022-12-29T11:06:23;3.50;;;1.60;;
77152;SDS011;66124;51.146;17.072;2022-12-29T11:08:55;3.00;;;1.20;;
77152;SDS011;66124;51.146;17.072;2022-12-29T11:11:32;3.40;;;1.80;;
77152;SDS011;66124;51.146;17.072;2022-12-29T11:14:08;2.00;;;1.20;;
77152;SDS011;66124;51.146;17.072;2022-12-29T11:16:41;2.80;;;1.30;;
77152;SDS011;66124;51.146;17.072;2022-12-29T11:19:20;3.00;;;1.40;;
77152;SDS011;66124;51.146;17.072;2022-12-29T11:21:51;4.20;;;1.40;;
77152;SDS011;66124;51.146;17.072;2022-12-29T11:24:22;6.20;;;1.70;;
77152;SDS011;66124;51.146;17.072;2022-12-29T11:26:54;2.70;;;1.60;;
77152;SDS011;66124;51.146;17.072;2022-12-29T11:29:38;2.60;;;1.40;;
77152;SDS011;66124;51.146;17.072;2022-12-29T11:32:12;2.20;;;1.30;;
77152;SDS011;66124;51.146;17.072;2022-12-29T11:34:45;3.40;;;1.70;;
77152;SDS011;66124;51.146;17.072;2022-12-29T11:37:15;2.80;;;1.60;;
77152;SDS011;66124;51.146;17.072;2022-12-29T11:39:48;2.40;;;1.40;;
77152;SDS011;66124;51.146;17.072;2022-12-29T11:42:23;3.20;;;1.70;;
77152;SDS011;66124;51.146;17.072;2022-12-29T11:45:05;2.80;;;1.50;;
77152;SDS011;66124;51.146;17.072;2022-12-29T11:47:42;3.10;;;1.60;;
77152;SDS011;66124;51.146;17.072;2022-12-29T11:50:18;3.50;;;1.10;;
77152;SDS011;66124;51.146;17.072;2022-12-29T12:00:50;3.70;;;1.60;;
77152;SDS011;66124;51.146;17.072;2022-12-29T12:03:20;4.30;;;2.00;;
77152;SDS011;66124;51.146;17.072;2022-12-29T12:05:54;4.00;;;1.90;;
77152;SDS011;66124;51.146;17.072;2022-12-29T12:08:29;4.80;;;2.40;;
77152;SDS011;66124;51.146;17.072;2022-12-29T12:11:04;2.70;;;1.50;;
77152;SDS011;66124;51.146;17.072;2022-12-29T12:13:39;3.90;;;2.10;;
77152;SDS011;66124;51.146;17.072;2022-12-29T12:16:14;3.60;;;2.10;;
77152;SDS011;66124;51.146;17.072;2022-12-29T12:18:47;4.90;;;2.00;;
77152;SDS011;66124;51.146;17.072;2022-12-29T12:21:23;2.90;;;1.60;;
77152;SDS011;66124;51.146;17.072;2022-12-29T12:24:00;3.60;;;2.10;;
77152;SDS011;66124;51.146;17.072;2022-12-29T12:26:45;3.70;;;1.80;;
77152;SDS011;66124;51.146;17.072;2022-12-29T12:29:24;3.10;;;1.90;;
77152;SDS011;66124;51.146;17.072;2022-12-29T12:32:01;4.30;;;2.10;;
77152;SDS011;66124;51.146;17.072;2022-12-29T12:34:39;6.70;;;2.50;;
77152;SDS011;66124;51.146;17.072;2022-12-29T12:37:15;3.00;;;1.70;;
77152;SDS011;66124;51.146;17.072;2022-12-29T12:40:13;3.50;;;1.80;;
77152;SDS011;66124;51.146;17.072;2022-12-29T12:43:01;3.70;;;2.00;;
77152;SDS011;66124;51.146;17.072;2022-12-29T12:45:49;3.30;;;2.20;;
77152;SDS011;66124;51.146;17.072;2022-12-29T12:51:05;5.30;;;1.80;;
77152;SDS011;66124;51.146;17.072;2022-12-29T12:53:46;3.90;;;1.90;;
77152;SDS011;66124;51.146;17.072;2022-12-29T12:56:35;3.10;;;1.90;;
77152;SDS011;66124;51.146;17.072;2022-12-29T12:59:23;6.30;;;2.10;;
77152;SDS011;66124;51.146;17.072;2022-12-29T13:02:09;3.00;;;1.70;;
77152;SDS011;66124;51.146;17.072;2022-12-29T13:05:03;3.10;;;1.80;;
77152;SDS011;66124;51.146;17.072;2022-12-29T13:07:55;2.30;;;1.40;;
77152;SDS011;66124;51.146;17.072;2022-12-29T13:10:42;5.90;;;2.00;;
77152;SDS011;66124;51.146;17.072;2022-12-29T13:26:37;3.00;;;1.40;;
77152;SDS011;66124;51.146;17.072;2022-12-29T13:29:13;2.80;;;1.70;;
77152;SDS011;66124;51.146;17.072;2022-12-29T13:31:50;3.70;;;1.80;;
77152;SDS011;66124;51.146;17.072;2022-12-29T13:34:30;5.10;;;2.20;;
77152;SDS011;66124;51.146;17.072;2022-12-29T13:37:11;3.50;;;1.80;;
77152;SDS011;66124;51.146;17.072;2022-12-29T13:39:46;2.00;;;1.50;;
77152;SDS011;66124;51.146;17.072;2022-12-29T13:42:19;3.20;;;2.10;;
77152;SDS011;66124;51.146;17.072;2022-12-29T13:44:50;3.00;;;1.70;;
77152;SDS011;66124;51.146;17.072;2022-12-29T13:47:27;4.70;;;1.70;;
77152;SDS011;66124;51.146;17.072;2022-12-29T13:50:00;3.80;;;2.20;;
77152;SDS011;66124;51.146;17.072;2022-12-29T13:52:40;2.20;;;1.50;;
77152;SDS011;66124;51.146;17.072;2022-12-29T13:57:51;3.10;;;1.60;;
77152;SDS011;66124;51.146;17.072;2022-12-29T14:00:32;3.40;;;1.90;;
77152;SDS011;66124;51.146;17.072;2022-12-29T14:03:12;3.60;;;1.60;;
77152;SDS011;66124;51.146;17.072;2022-12-29T14:06:14;3.40;;;1.80;;
77152;SDS011;66124;51.146;17.072;2022-12-29T14:08:47;3.00;;;1.60;;
77152;SDS011;66124;51.146;17.072;2022-12-29T14:11:18;4.90;;;2.00;;
77152;SDS011;66124;51.146;17.072;2022-12-29T14:13:50;4.40;;;2.00;;
77152;SDS011;66124;51.146;17.072;2022-12-29T14:16:30;8.00;;;2.10;;
77152;SDS011;66124;51.146;17.072;2022-12-29T14:19:09;3.10;;;1.70;;
77152;SDS011;66124;51.146;17.072;2022-12-29T14:21:44;4.90;;;2.60;;
77152;SDS011;66124;51.146;17.072;2022-12-29T14:33:16;7.30;;;3.70;;
77152;SDS011;66124;51.146;17.072;2022-12-29T14:46:56;6.40;;;3.30;;
77152;SDS011;66124;51.146;17.072;2022-12-29T14:49:31;5.60;;;2.70;;
77152;SDS011;66124;51.146;17.072;2022-12-29T14:52:12;7.20;;;3.00;;
77152;SDS011;66124;51.146;17.072;2022-12-29T14:54:47;6.20;;;3.70;;
77152;SDS011;66124;51.146;17.072;2022-12-29T15:00:14;5.20;;;3.40;;
77152;SDS011;66124;51.146;17.072;2022-12-29T15:02:47;4.90;;;3.20;;
77152;SDS011;66124;51.146;17.072;2022-12-29T15:05:32;6.40;;;3.40;;
77152;SDS011;66124;51.146;17.072;2022-12-29T15:08:08;6.30;;;3.80;;
77152;SDS011;66124;51.146;17.072;2022-12-29T15:10:40;7.90;;;4.00;;
77152;SDS011;66124;51.146;17.072;2022-12-29T15:13:16;4.40;;;2.80;;
77152;SDS011;66124;51.146;17.072;2022-12-29T15:15:49;7.30;;;3.50;;
77152;SDS011;66124;51.146;17.072;2022-12-29T15:18:23;7.40;;;3.40;;
77152;SDS011;66124;51.146;17.072;2022-12-29T15:20:55;4.00;;;2.60;;
77152;SDS011;66124;51.146;17.072;2022-12-29T15:23:27;5.50;;;2.80;;
77152;SDS011;66124;51.146;17.072;2022-12-29T15:25:59;5.90;;;3.70;;
77152;SDS011;66124;51.146;17.072;2022-12-29T15:28:36;6.50;;;3.30;;
77152;SDS011;66124;51.146;17.072;2022-12-29T15:31:10;5.40;;;3.20;;
77152;SDS011;66124;51.146;17.072;2022-12-29T15:33:42;6.30;;;3.60;;
77152;SDS011;66124;51.146;17.072;2022-12-29T15:36:13;6.80;;;3.70;;
77152;SDS011;66124;51.146;17.072;2022-12-29T15:38:46;6.50;;;4.00;;
77152;SDS011;66124;51.146;17.072;2022-12-29T15:41:20;8.90;;;4.10;;
77152;SDS011;66124;51.146;17.072;2022-12-29T15:44:07;8.50;;;4.50;;
77152;SDS011;66124;51.146;17.072;2022-12-29T15:46:42;6.60;;;4.20;;
77152;SDS011;66124;51.146;17.072;2022-12-29T15:49:13;6.90;;;4.10;;
77152;SDS011;66124;51.146;17.072;2022-12-29T15:51:43;6.70;;;4.20;;
77152;SDS011;66124;51.146;17.072;2022-12-29T15:54:15;7.30;;;4.40;;
77152;SDS011;66124;51.146;17.072;2022-12-29T16:06:43;7.10;;;4.10;;
77152;SDS011;66124;51.146;17.072;2022-12-29T16:09:30;8.90;;;5.50;;
77152;SDS011;66124;51.146;17.072;2022-12-29T16:12:01;7.90;;;4.10;;
77152;SDS011;66124;51.146;17.072;2022-12-29T16:14:33;7.40;;;4.50;;
77152;SDS011;66124;51.146;17.072;2022-12-29T16:17:11;9.40;;;5.00;;
77152;SDS011;66124;51.146;17.072;2022-12-29T16:19:43;8.10;;;4.10;;
77152;SDS011;66124;51.146;17.072;2022-12-29T16:22:20;9.60;;;5.20;;
77152;SDS011;66124;51.146;17.072;2022-12-29T16:24:56;8.50;;;4.30;;
77152;SDS011;66124;51.146;17.072;2022-12-29T16:27:31;8.80;;;5.80;;
77152;SDS011;66124;51.146;17.072;2022-12-29T16:30:05;7.60;;;4.90;;
77152;SDS011;66124;51.146;17.072;2022-12-29T16:32:46;8.70;;;5.20;;
77152;SDS011;66124;51.146;17.072;2022-12-29T16:35:18;9.40;;;4.40;;
77152;SDS011;66124;51.146;17.072;2022-12-29T16:40:37;7.70;;;4.30;;
77152;SDS011;66124;51.146;17.072;2022-12-29T16:43:20;8.30;;;4.60;;
77152;SDS011;66124;51.146;17.072;2022-12-29T16:48:49;7.90;;;4.40;;
77152;SDS011;66124;51.146;17.072;2022-12-29T16:51:23;8.80;;;4.50;;
77152;SDS011;66124;51.146;17.072;2022-12-29T16:53:59;6.90;;;4.50;;
77152;SDS011;66124;51.146;17.072;2022-12-29T16:56:30;7.90;;;4.70;;
77152;SDS011;66124;51.146;17.072;2022-12-29T16:59:03;6.60;;;4.00;;
77152;SDS011;66124;51.146;17.072;2022-12-29T17:01:36;7.60;;;4.60;;
77152;SDS011;66124;51.146;17.072;2022-12-29T17:04:07;8.30;;;3.80;;
77152;SDS011;66124;51.146;17.072;2022-12-29T17:06:39;11.90;;;5.40;;
77152;SDS011;66124;51.146;17.072;2022-12-29T17:09:19;10.60;;;5.00;;
77152;SDS011;66124;51.146;17.072;2022-12-29T17:11:51;8.40;;;4.70;;
77152;SDS011;66124;51.146;17.072;2022-12-29T17:14:26;6.70;;;4.10;;
77152;SDS011;66124;51.146;17.072;2022-12-29T17:30:38;8.30;;;4.00;;
77152;SDS011;66124;51.146;17.072;2022-12-29T17:33:11;6.70;;;4.20;;
77152;SDS011;66124;51.146;17.072;2022-12-29T17:35:43;6.60;;;4.50;;
77152;SDS011;66124;51.146;17.072;2022-12-29T17:38:17;7.50;;;4.30;;
77152;SDS011;66124;51.146;17.072;2022-12-29T17:40:48;8.60;;;5.00;;
77152;SDS011;66124;51.146;17.072;2022-12-29T17:43:18;8.30;;;4.70;;
77152;SDS011;66124;51.146;17.072;2022-12-29T17:45:48;7.80;;;4.50;;
77152;SDS011;66124;51.146;17.072;2022-12-29T17:48:20;13.00;;;5.10;;
77152;SDS011;66124;51.146;17.072;2022-12-29T17:50:50;8.30;;;4.60;;
77152;SDS011;66124;51.146;17.072;2022-12-29T17:53:21;8.50;;;4.70;;